createdAt,value
2018-09-18T00:02:09.264Z,55.08
2018-09-18T00:04:36.908Z,54.17
2018-09-18T00:07:03.549Z,54.36
2018-09-18T00:09:30.192Z,54.70
2018-09-18T00:11:58.124Z,54.90
2018-09-18T00:14:26.463Z,55.10
2018-09-18T00:16:54.453Z,55.43
2018-09-18T00:19:22.002Z,55.40
2018-09-18T00:21:49.653Z,54.69
2018-09-18T00:24:17.381Z,54.90
2018-09-18T00:26:44.058Z,54.73
2018-09-18T00:29:11.620Z,55.15
2018-09-18T00:31:39.254Z,54.58
2018-09-18T00:34:05.893Z,54.53
2018-09-18T00:36:32.761Z,55.14
2018-09-18T00:39:00.385Z,54.55
2018-09-18T00:41:28.016Z,54.37
2018-09-18T00:43:54.689Z,54.43
2018-09-18T00:46:21.368Z,54.89
2018-09-18T00:48:48.892Z,54.93
2018-09-18T00:51:16.474Z,55.06
2018-09-18T00:53:43.105Z,54.34
2018-09-18T00:56:09.765Z,54.77
2018-09-18T00:58:36.445Z,54.92
2018-09-18T01:01:04.099Z,54.18
2018-09-18T01:03:30.818Z,54.49
2018-09-18T01:05:59.276Z,54.80
2018-09-18T01:08:26.761Z,54.14
2018-09-18T01:10:54.245Z,54.78
2018-09-18T01:13:21.852Z,54.08
2018-09-18T01:15:48.532Z,53.84
2018-09-18T01:18:15.985Z,54.93
2018-09-18T01:20:43.560Z,54.76
2018-09-18T01:23:11.180Z,53.97
2018-09-18T01:25:38.813Z,54.65
2018-09-18T01:28:06.485Z,54.17
2018-09-18T01:30:33.252Z,54.19
2018-09-18T01:32:59.990Z,54.74
2018-09-18T01:35:26.996Z,54.20
2018-09-18T01:37:54.481Z,55.17
2018-09-18T01:40:22.073Z,54.45
2018-09-18T01:42:48.729Z,55.18
2018-09-18T01:45:15.392Z,54.44
2018-09-18T01:47:43.073Z,55.27
2018-09-18T01:50:09.773Z,54.44
2018-09-18T01:52:36.416Z,54.91
2018-09-18T01:55:03.052Z,55.31
2018-09-18T01:57:29.757Z,54.94
2018-09-18T01:59:57.409Z,55.02
2018-09-18T02:02:24.864Z,55.14
2018-09-18T02:04:53.160Z,54.63
2018-09-18T02:07:20.728Z,55.13
2018-09-18T02:09:48.167Z,55.30
2018-09-18T02:12:15.735Z,54.55
2018-09-18T02:14:43.466Z,54.87
2018-09-18T02:17:11.169Z,54.71
2018-09-18T02:19:38.745Z,55.21
2018-09-18T02:22:05.422Z,54.57
2018-09-18T02:24:32.892Z,54.44
2018-09-18T02:27:00.533Z,54.76
2018-09-18T02:29:27.212Z,54.56
2018-09-18T02:31:55.241Z,55.06
2018-09-18T02:34:24.692Z,54.48
2018-09-18T02:36:53.190Z,54.38
2018-09-18T02:39:20.758Z,54.97
2018-09-18T02:41:47.400Z,54.68
2018-09-18T02:44:14.981Z,55.27
2018-09-18T02:46:42.583Z,54.44
2018-09-18T02:49:09.280Z,55.23
2018-09-18T02:51:36.897Z,55.11
2018-09-18T02:54:04.522Z,54.46
2018-09-18T02:56:32.180Z,54.94
2018-09-18T02:58:59.933Z,55.17
2018-09-18T03:01:27.580Z,55.12
2018-09-18T03:03:55.213Z,55.24
2018-09-18T03:06:21.836Z,54.40
2018-09-18T03:08:49.533Z,55.12
2018-09-18T03:11:16.234Z,55.31
2018-09-18T03:13:43.725Z,54.44
2018-09-18T03:16:10.376Z,55.03
2018-09-18T03:18:37.951Z,54.37
2018-09-18T03:21:05.697Z,54.45
2018-09-18T03:23:33.429Z,55.20
2018-09-18T03:26:00.962Z,55.05
2018-09-18T03:28:27.877Z,55.58
2018-09-18T03:30:54.573Z,55.10
2018-09-18T03:33:21.256Z,55.52
2018-09-18T03:35:48.042Z,54.58
2018-09-18T03:38:14.677Z,54.61
2018-09-18T03:40:42.185Z,54.35
2018-09-18T03:43:08.870Z,55.15
2018-09-18T03:45:36.544Z,54.52
2018-09-18T03:48:03.983Z,55.16
2018-09-18T03:50:31.653Z,55.17
2018-09-18T03:52:59.271Z,55.18
2018-09-18T03:55:27.684Z,54.34
2018-09-18T03:57:54.557Z,54.59
2018-09-18T04:00:23.051Z,55.25
2018-09-18T04:02:49.909Z,55.25
2018-09-18T04:05:16.533Z,54.64
2018-09-18T04:07:43.980Z,55.47
2018-09-18T04:10:10.632Z,54.70
2018-09-18T04:12:38.301Z,54.51
2018-09-18T04:15:05.029Z,54.65
2018-09-18T04:17:32.671Z,55.53
2018-09-18T04:20:00.152Z,55.08
2018-09-18T04:22:26.858Z,55.03
2018-09-18T04:24:54.332Z,55.25
2018-09-18T04:27:20.973Z,55.05
2018-09-18T04:29:47.662Z,54.99
2018-09-18T04:32:14.332Z,54.41
2018-09-18T04:34:41.037Z,54.44
2018-09-18T04:37:07.682Z,55.06
2018-09-18T04:39:34.539Z,54.31
2018-09-18T04:42:02.032Z,54.29
2018-09-18T04:44:29.620Z,54.71
2018-09-18T04:46:57.507Z,55.09
2018-09-18T04:49:25.100Z,55.40
2018-09-18T04:51:51.749Z,55.41
2018-09-18T04:54:18.404Z,55.37
2018-09-18T04:56:45.093Z,55.13
2018-09-18T04:59:11.908Z,55.25
2018-09-18T05:01:38.589Z,54.54
2018-09-18T05:04:05.242Z,54.27
2018-09-18T05:06:31.912Z,54.88
2018-09-18T05:08:58.582Z,54.49
2018-09-18T05:11:25.267Z,55.07
2018-09-18T05:13:53.287Z,54.80
2018-09-18T05:16:21.629Z,54.50
2018-09-18T05:18:49.268Z,54.57
2018-09-18T05:21:16.036Z,54.91
2018-09-18T05:23:42.684Z,55.12
2018-09-18T05:26:09.339Z,55.31
2018-09-18T05:28:36.012Z,54.72
2018-09-18T05:31:02.672Z,55.42
2018-09-18T05:33:29.331Z,54.82
2018-09-18T05:35:57.448Z,55.41
2018-09-18T05:38:25.129Z,55.45
2018-09-18T05:40:53.470Z,54.89
2018-09-18T05:43:20.999Z,55.48
2018-09-18T05:45:47.736Z,54.83
2018-09-18T05:48:15.348Z,54.65
2018-09-18T05:50:42.492Z,55.52
2018-09-18T05:53:09.821Z,54.94
2018-09-18T05:55:37.441Z,54.65
2018-09-18T05:58:05.060Z,54.70
2018-09-18T06:00:32.736Z,54.64
2018-09-18T06:03:00.435Z,55.32
2018-09-18T06:05:27.368Z,54.76
2018-09-18T06:07:54.038Z,55.22
2018-09-18T06:10:21.556Z,55.31
2018-09-18T06:12:48.236Z,53.85
2018-09-18T06:15:14.938Z,55.37
2018-09-18T06:17:42.625Z,55.51
2018-09-18T06:20:09.313Z,54.64
2018-09-18T06:22:36.024Z,54.69
2018-09-18T06:25:02.735Z,54.69
2018-09-18T06:27:30.273Z,55.22
2018-09-18T06:29:57.799Z,55.59
2018-09-18T06:32:25.489Z,55.51
2018-09-18T06:34:55.305Z,55.53
2018-09-18T06:37:24.333Z,55.53
2018-09-18T06:39:53.414Z,54.93
2018-09-18T06:42:21.079Z,54.60
2018-09-18T06:44:48.564Z,54.38
2018-09-18T06:47:16.546Z,54.71
2018-09-18T06:49:44.326Z,54.84
2018-09-18T06:52:12.088Z,54.90
2018-09-18T06:54:39.592Z,55.36
2018-09-18T06:57:06.257Z,55.51
2018-09-18T06:59:32.961Z,54.66
2018-09-18T07:02:00.508Z,54.37
2018-09-18T07:04:28.692Z,54.47
2018-09-18T07:06:57.565Z,54.81
2018-09-18T07:09:24.241Z,55.56
2018-09-18T07:11:50.914Z,55.55
2018-09-18T07:14:17.576Z,55.71
2018-09-18T07:16:44.240Z,56.23
2018-09-18T07:19:10.941Z,55.50
2018-09-18T07:21:37.617Z,55.22
2018-09-18T07:24:04.257Z,55.44
2018-09-18T07:26:30.941Z,55.77
2018-09-18T07:28:57.597Z,55.60
2018-09-18T07:31:24.256Z,55.10
2018-09-18T07:33:51.012Z,54.80
2018-09-18T07:36:18.614Z,54.49
2018-09-18T07:38:46.165Z,53.93
2018-09-18T07:41:13.812Z,54.75
2018-09-18T07:43:40.505Z,54.36
2018-09-18T07:46:07.321Z,55.25
2018-09-18T07:48:36.857Z,54.58
2018-09-18T07:51:05.205Z,55.25
2018-09-18T07:53:32.652Z,55.15
2018-09-18T07:56:02.300Z,55.58
2018-09-18T07:58:28.949Z,55.50
2018-09-18T08:00:56.628Z,55.27
2018-09-18T08:03:24.376Z,54.89
2018-09-18T08:05:52.044Z,55.29
2018-09-18T08:08:18.972Z,55.81
2018-09-18T08:10:46.625Z,55.09
2018-09-18T08:13:13.485Z,55.66
2018-09-18T08:15:40.968Z,55.81
2018-09-18T08:18:07.692Z,55.33
2018-09-18T08:20:35.306Z,55.67
2018-09-18T08:23:02.036Z,56.14
2018-09-18T08:25:28.864Z,55.35
2018-09-18T08:27:57.678Z,56.13
2018-09-18T08:30:24.371Z,55.47
2018-09-18T08:32:51.116Z,55.97
2018-09-18T08:35:18.598Z,56.32
2018-09-18T08:37:45.256Z,55.65
2018-09-18T08:40:11.909Z,56.12
2018-09-18T08:42:39.471Z,56.70
2018-09-18T08:45:06.187Z,56.26
2018-09-18T08:47:33.901Z,56.14
2018-09-18T08:50:01.460Z,56.50
2018-09-18T08:52:28.409Z,56.25
2018-09-18T08:54:56.910Z,56.98
2018-09-18T08:57:25.149Z,56.86
2018-09-18T08:59:51.817Z,57.29
2018-09-18T09:02:18.521Z,56.66
2018-09-18T09:04:45.244Z,56.85
2018-09-18T09:07:12.099Z,57.41
2018-09-18T09:09:38.861Z,57.39
2018-09-18T09:12:06.369Z,57.48
2018-09-18T09:14:33.189Z,56.86
2018-09-18T09:17:00.858Z,56.92
2018-09-18T09:19:28.456Z,56.94
2018-09-18T09:21:55.263Z,56.81
2018-09-18T09:24:22.104Z,57.63
2018-09-18T09:26:49.922Z,57.61
2018-09-18T09:29:16.571Z,57.01
2018-09-18T09:31:44.072Z,57.21
2018-09-18T09:34:11.794Z,57.09
2018-09-18T09:36:38.466Z,57.29
2018-09-18T09:39:07.273Z,57.98
2018-09-18T09:41:34.932Z,58.01
2018-09-18T09:44:02.835Z,58.17
2018-09-18T09:46:30.305Z,57.66
2018-09-18T09:48:57.978Z,58.05
2018-09-18T09:51:25.513Z,57.59
2018-09-18T09:53:53.632Z,58.62
2018-09-18T09:56:21.533Z,58.55
2018-09-18T09:58:49.157Z,58.15
2018-09-18T10:01:23.549Z,57.69
2018-09-18T10:03:50.237Z,58.50
2018-09-18T10:06:17.761Z,57.86
2018-09-18T10:08:45.409Z,58.75
2018-09-18T10:11:13.077Z,58.00
2018-09-18T10:13:39.732Z,58.51
2018-09-18T10:16:07.289Z,57.84
2018-09-18T10:18:33.949Z,57.96
2018-09-18T10:21:01.381Z,58.15
2018-09-18T10:23:28.045Z,58.52
2018-09-18T10:25:56.700Z,58.14
2018-09-18T10:28:24.172Z,58.54
2018-09-18T10:30:50.814Z,58.00
2018-09-18T10:33:17.569Z,58.84
2018-09-18T10:35:44.273Z,58.51
2018-09-18T10:38:10.964Z,58.52
2018-09-18T10:40:37.668Z,58.25
2018-09-18T10:43:05.353Z,58.71
2018-09-18T10:45:32.033Z,58.58
2018-09-18T10:47:58.719Z,58.09
2018-09-18T10:50:25.357Z,58.15
2018-09-18T10:52:52.009Z,58.15
2018-09-18T10:55:18.728Z,58.32
2018-09-18T10:57:45.400Z,58.96
2018-09-18T11:00:12.063Z,58.27
2018-09-18T11:02:38.740Z,58.42
2018-09-18T11:05:05.414Z,58.47
2018-09-18T11:07:32.132Z,58.93
2018-09-18T11:09:58.903Z,58.33
2018-09-18T11:12:27.477Z,59.04
2018-09-18T11:14:55.228Z,58.89
2018-09-18T11:17:21.884Z,58.49
2018-09-18T11:19:49.464Z,58.95
2018-09-18T11:22:17.092Z,59.53
2018-09-18T11:24:44.600Z,59.17
2018-09-18T11:27:11.300Z,59.38
2018-09-18T11:29:38.033Z,58.70
2018-09-18T11:32:04.787Z,59.31
2018-09-18T11:34:32.358Z,58.75
2018-09-18T11:37:00.102Z,59.23
2018-09-18T11:39:27.764Z,58.94
2018-09-18T11:41:55.411Z,58.90
2018-09-18T11:44:22.062Z,59.42
2018-09-18T11:46:49.087Z,58.83
2018-09-18T11:49:16.481Z,58.99
2018-09-18T11:51:43.164Z,59.16
2018-09-18T11:54:10.837Z,59.15
2018-09-18T11:56:38.648Z,59.24
2018-09-18T11:59:06.124Z,59.94
2018-09-18T12:01:33.732Z,59.92
2018-09-18T12:04:01.572Z,59.94
2018-09-18T12:06:29.057Z,59.96
2018-09-18T12:08:56.708Z,59.54
2018-09-18T12:11:24.051Z,58.34
2018-09-18T12:13:51.693Z,58.33
2018-09-18T12:16:18.397Z,57.49
2018-09-18T12:18:45.100Z,57.65
2018-09-18T12:21:12.744Z,56.86
2018-09-18T12:23:40.425Z,56.07
2018-09-18T12:26:07.085Z,55.96
2018-09-18T12:28:34.784Z,55.76
2018-09-18T12:31:02.497Z,55.67
2018-09-18T12:33:30.177Z,56.00
2018-09-18T12:35:57.873Z,55.56
2018-09-18T12:38:25.565Z,56.52
2018-09-18T12:40:54.346Z,55.96
2018-09-18T12:43:21.018Z,56.45
2018-09-18T12:45:49.069Z,56.21
2018-09-18T12:48:15.739Z,55.34
2018-09-18T12:50:42.446Z,56.37
2018-09-18T12:53:10.075Z,56.25
2018-09-18T12:55:36.755Z,55.94
2018-09-18T12:58:04.482Z,56.87
2018-09-18T13:00:31.991Z,56.08
2018-09-18T13:02:58.946Z,56.81
2018-09-18T13:05:27.038Z,56.36
2018-09-18T13:07:55.593Z,57.13
2018-09-18T13:10:24.329Z,57.22
2018-09-18T13:12:51.958Z,57.35
2018-09-18T13:15:18.625Z,57.18
2018-09-18T13:17:45.361Z,57.08
2018-09-18T13:20:12.035Z,57.50
2018-09-18T13:22:38.717Z,56.96
2018-09-18T13:25:05.834Z,58.20
2018-09-18T13:27:32.481Z,58.21
2018-09-18T13:29:59.125Z,57.47
2018-09-18T13:32:26.855Z,58.08
2018-09-18T13:34:54.632Z,57.74
2018-09-18T13:37:21.292Z,58.26
2018-09-18T13:39:48.061Z,58.17
2018-09-18T13:42:14.790Z,58.15
2018-09-18T13:44:42.477Z,57.55
2018-09-18T13:47:10.131Z,57.67
2018-09-18T13:49:37.597Z,58.49
2018-09-18T13:52:04.256Z,58.59
2018-09-18T13:54:31.866Z,57.82
2018-09-18T13:56:59.688Z,58.59
2018-09-18T13:59:27.288Z,58.03
2018-09-18T14:01:54.781Z,58.86
2018-09-18T14:04:23.786Z,58.87
2018-09-18T14:06:51.290Z,59.09
2018-09-18T14:09:17.942Z,59.03
2018-09-18T14:11:45.618Z,58.54
2018-09-18T14:14:13.428Z,58.29
2018-09-18T14:16:40.883Z,59.17
2018-09-18T14:19:12.113Z,58.33
2018-09-18T14:21:39.732Z,58.43
2018-09-18T14:24:07.277Z,58.51
2018-09-18T14:26:34.213Z,58.36
2018-09-18T14:29:01.545Z,59.18
2018-09-18T14:31:29.049Z,58.57
2018-09-18T14:33:57.941Z,59.21
2018-09-18T14:36:25.562Z,59.20
2018-09-18T14:38:54.287Z,58.52
2018-09-18T14:41:21.819Z,59.25
2018-09-18T14:43:49.489Z,58.34
2018-09-18T14:46:17.124Z,58.42
2018-09-18T14:48:44.636Z,58.90
2018-09-18T14:51:12.233Z,59.67
2018-09-18T14:53:38.878Z,58.88
2018-09-18T14:56:06.424Z,58.79
2018-09-18T14:58:33.934Z,59.60
2018-09-18T15:01:00.572Z,58.93
2018-09-18T15:03:28.101Z,58.83
2018-09-18T15:05:55.557Z,58.93
2018-09-18T15:08:23.188Z,59.29
2018-09-18T15:10:50.803Z,59.76
2018-09-18T15:13:17.467Z,59.83
2018-09-18T15:15:45.119Z,59.86
2018-09-18T15:18:12.655Z,59.87
2018-09-18T15:20:40.257Z,59.86
2018-09-18T15:23:06.917Z,59.17
2018-09-18T15:25:34.554Z,59.87
2018-09-18T15:28:01.236Z,59.88
2018-09-18T15:30:27.880Z,59.85
2018-09-18T15:32:54.540Z,59.13
2018-09-18T15:35:21.201Z,59.90
2018-09-18T15:37:47.849Z,59.89
2018-09-18T15:40:14.482Z,59.79
2018-09-18T15:42:41.125Z,59.73
2018-09-18T15:45:07.777Z,59.94
2018-09-18T15:47:35.274Z,59.62
2018-09-18T15:50:01.954Z,60.09
2018-09-18T15:52:28.625Z,59.11
2018-09-18T15:54:55.303Z,59.82
2018-09-18T15:57:23.044Z,60.10
2018-09-18T15:59:49.714Z,59.39
2018-09-18T16:02:16.416Z,59.33
2018-09-18T16:04:43.109Z,60.05
2018-09-18T16:07:09.757Z,59.47
2018-09-18T16:09:36.463Z,59.49
2018-09-18T16:12:03.128Z,59.65
2018-09-18T16:14:30.775Z,59.35
2018-09-18T16:16:58.397Z,60.20
2018-09-18T16:19:25.076Z,60.40
2018-09-18T16:21:53.604Z,59.48
2018-09-18T16:24:20.320Z,59.87
2018-09-18T16:26:47.801Z,59.65
2018-09-18T16:29:15.339Z,59.69
2018-09-18T16:31:42.943Z,59.57
2018-09-18T16:34:09.637Z,59.68
2018-09-18T16:36:37.276Z,59.77
2018-09-18T16:39:04.856Z,60.50
2018-09-18T16:41:31.517Z,59.40
2018-09-18T16:43:59.123Z,60.43
2018-09-18T16:46:27.454Z,60.01
2018-09-18T16:48:54.157Z,59.82
2018-09-18T16:51:21.713Z,59.69
2018-09-18T16:53:49.174Z,60.21
2018-09-18T16:56:16.670Z,60.53
2018-09-18T16:58:44.164Z,59.60
2018-09-18T17:01:10.876Z,59.55
2018-09-18T17:03:37.545Z,60.35
2018-09-18T17:06:04.309Z,59.99
2018-09-18T17:08:30.964Z,59.86
2018-09-18T17:10:57.731Z,60.77
2018-09-18T17:13:24.476Z,60.39
2018-09-18T17:15:53.105Z,59.48
2018-09-18T17:18:20.714Z,59.79
2018-09-18T17:20:48.357Z,60.78
2018-09-18T17:23:15.000Z,59.88
2018-09-18T17:25:42.573Z,60.02
2018-09-18T17:28:10.194Z,60.11
2018-09-18T17:30:37.920Z,61.05
2018-09-18T17:33:04.660Z,61.04
2018-09-18T17:35:31.388Z,60.13
2018-09-18T17:37:58.946Z,60.19
2018-09-18T17:40:27.629Z,60.99
2018-09-18T17:42:54.447Z,61.04
2018-09-18T17:45:22.031Z,60.94
2018-09-18T17:47:49.698Z,60.40
2018-09-18T17:50:17.373Z,60.26
2018-09-18T17:52:43.987Z,60.77
2018-09-18T17:55:11.745Z,60.50
2018-09-18T17:57:38.401Z,60.44
2018-09-18T18:00:05.182Z,61.07
2018-09-18T18:02:32.816Z,61.25
2018-09-18T18:05:00.446Z,60.51
2018-09-18T18:07:27.952Z,60.35
2018-09-18T18:09:54.631Z,61.03
2018-09-18T18:12:21.294Z,60.47
2018-09-18T18:14:47.949Z,60.42
2018-09-18T18:17:14.884Z,60.72
2018-09-18T18:19:41.644Z,60.88
2018-09-18T18:22:14.349Z,61.35
2018-09-18T18:24:41.107Z,61.37
2018-09-18T18:27:08.130Z,61.11
2018-09-18T18:29:34.915Z,60.70
2018-09-18T18:32:02.389Z,61.31
2018-09-18T18:34:30.521Z,61.38
2018-09-18T18:36:58.150Z,61.35
2018-09-18T18:39:24.812Z,60.63
2018-09-18T18:41:51.476Z,60.62
2018-09-18T18:44:18.168Z,60.58
2018-09-18T18:46:44.844Z,61.44
2018-09-18T18:49:11.503Z,61.38
2018-09-18T18:51:39.257Z,61.52
2018-09-18T18:54:06.069Z,60.72
2018-09-18T18:56:32.736Z,61.00
2018-09-18T18:58:59.547Z,61.40
2018-09-18T19:01:28.313Z,60.75
2018-09-18T19:03:54.956Z,60.78
2018-09-18T19:06:32.068Z,60.78
2018-09-18T19:08:58.927Z,61.03
2018-09-18T19:11:25.704Z,61.79
2018-09-18T19:13:53.352Z,61.45
2018-09-18T19:16:20.954Z,61.28
2018-09-18T19:18:47.720Z,61.57
2018-09-18T19:21:14.345Z,60.99
2018-09-18T19:23:41.049Z,60.89
2018-09-18T19:26:08.818Z,60.65
2018-09-18T19:28:39.078Z,60.84
2018-09-18T19:31:05.737Z,61.09
2018-09-18T19:33:33.573Z,60.91
2018-09-18T19:36:01.721Z,61.72
2018-09-18T19:38:29.314Z,60.73
2018-09-18T19:40:57.020Z,61.74
2018-09-18T19:43:23.735Z,61.76
2018-09-18T19:45:51.367Z,61.72
2018-09-18T19:48:18.373Z,60.80
2018-09-18T19:50:45.992Z,61.06
2018-09-18T19:53:12.661Z,61.04
2018-09-18T19:55:40.232Z,61.50
2018-09-18T19:58:07.455Z,61.08
2018-09-18T20:00:34.141Z,61.68
2018-09-18T20:03:00.785Z,61.78
2018-09-18T20:05:27.476Z,61.64
2018-09-18T20:07:54.997Z,61.67
2018-09-18T20:10:21.801Z,61.05
2018-09-18T20:12:48.506Z,61.74
2018-09-18T20:15:16.134Z,61.53
2018-09-18T20:17:43.737Z,61.64
2018-09-18T20:20:11.179Z,61.74
2018-09-18T20:22:38.664Z,61.82
2018-09-18T20:25:05.394Z,61.20
2018-09-18T20:27:32.064Z,61.53
2018-09-18T20:29:58.722Z,61.84
2018-09-18T20:32:27.460Z,61.01
2018-09-18T20:34:54.109Z,61.33
2018-09-18T20:37:21.641Z,61.37
2018-09-18T20:39:49.250Z,61.78
2018-09-18T20:42:15.868Z,61.11
2018-09-18T20:44:43.464Z,60.90
2018-09-18T20:47:10.955Z,61.12
2018-09-18T20:49:38.313Z,61.78
2018-09-18T20:52:05.968Z,61.07
2018-09-18T20:54:32.600Z,61.73
2018-09-18T20:56:59.232Z,61.69
2018-09-18T20:59:26.871Z,60.98
2018-09-18T21:01:53.510Z,61.24
2018-09-18T21:04:21.288Z,61.57
2018-09-18T21:06:48.057Z,60.91
2018-09-18T21:09:14.716Z,60.77
2018-09-18T21:11:41.352Z,60.66
2018-09-18T21:14:09.442Z,60.65
2018-09-18T21:16:38.424Z,60.58
2018-09-18T21:19:05.121Z,60.43
2018-09-18T21:21:31.773Z,61.33
2018-09-18T21:23:58.480Z,61.42
2018-09-18T21:26:25.248Z,60.60
2018-09-18T21:28:51.941Z,60.42
2018-09-18T21:31:18.589Z,61.33
2018-09-18T21:33:45.223Z,60.38
2018-09-18T21:36:12.700Z,60.88
2018-09-18T21:38:39.349Z,60.90
2018-09-18T21:41:06.035Z,60.71
2018-09-18T21:43:32.897Z,60.84
2018-09-18T21:46:00.872Z,60.04
2018-09-18T21:48:27.525Z,61.04
2018-09-18T21:50:55.039Z,61.03
2018-09-18T21:53:21.692Z,61.36
2018-09-18T21:55:48.343Z,61.11
2018-09-18T21:58:15.001Z,60.31
2018-09-18T22:00:43.819Z,60.47
2018-09-18T22:03:10.522Z,61.07
2018-09-18T22:05:38.230Z,61.12
2018-09-18T22:08:04.951Z,60.32
2018-09-18T22:10:32.617Z,60.13
2018-09-18T22:13:00.216Z,61.07
2018-09-18T22:15:27.509Z,59.68
2018-09-18T22:17:54.270Z,58.53
2018-09-18T22:20:20.938Z,60.44
2018-09-18T22:22:47.984Z,60.11
2018-09-18T22:25:14.693Z,59.76
2018-09-18T22:30:38.586Z,59.81
2018-09-18T22:33:06.894Z,60.75
2018-09-18T22:35:36.315Z,60.31
2018-09-18T22:38:03.922Z,60.43
2018-09-18T22:40:31.578Z,60.06
2018-09-18T22:42:58.350Z,59.98
2018-09-18T22:45:25.909Z,60.03
2018-09-18T22:47:52.724Z,60.88
2018-09-18T22:50:20.457Z,60.00
2018-09-18T22:52:49.958Z,60.25
2018-09-18T22:55:17.807Z,60.23
2018-09-18T22:57:45.025Z,60.98
2018-09-18T23:00:12.133Z,60.98
2018-09-18T23:02:39.680Z,60.25
2018-09-18T23:05:07.944Z,60.81
2018-09-18T23:07:37.105Z,61.13
2018-09-18T23:10:04.965Z,60.82
2018-09-18T23:12:32.634Z,60.29
2018-09-18T23:14:59.733Z,60.27
2018-09-18T23:17:27.395Z,61.07
2018-09-18T23:19:55.672Z,61.10
2018-09-18T23:22:22.716Z,60.85
2018-09-18T23:24:50.894Z,61.25
2018-09-18T23:27:19.951Z,60.92
2018-09-18T23:29:47.942Z,61.05
2018-09-18T23:32:15.061Z,61.27
2018-09-18T23:34:42.048Z,61.03
2018-09-18T23:37:09.209Z,60.46
2018-09-18T23:39:38.255Z,60.49
2018-09-18T23:42:06.891Z,61.35
2018-09-18T23:44:34.842Z,61.27
2018-09-18T23:47:02.780Z,60.61
2018-09-18T23:49:30.919Z,60.53
2018-09-18T23:51:58.916Z,61.16
2018-09-18T23:54:25.961Z,60.72
2018-09-18T23:56:53.923Z,61.47
2018-09-18T23:59:21.071Z,60.40
